sensor_id;sensor_type;location;lat;lon;timestamp;pressure;altitude;pressure_sealevel;temperature
66113;BMP280;52893;52.870;5.822;2023-06-10T00:02:21;101649.94;;;18.81
66113;BMP280;52893;52.870;5.822;2023-06-10T00:04:48;101659.31;;;18.76
66113;BMP280;52893;52.870;5.822;2023-06-10T00:07:16;101663.09;;;18.68
66113;BMP280;52893;52.870;5.822;2023-06-10T00:09:43;101659.06;;;18.62
66113;BMP280;52893;52.870;5.822;2023-06-10T00:12:12;101654.94;;;18.56
66113;BMP280;52893;52.870;5.822;2023-06-10T00:14:40;101658.81;;;18.51
66113;BMP280;52893;52.870;5.822;2023-06-10T00:17:07;101659.69;;;18.55
66113;BMP280;52893;52.870;5.822;2023-06-10T00:19:36;101667.16;;;18.55
66113;BMP280;52893;52.870;5.822;2023-06-10T00:22:07;101659.63;;;18.52
66113;BMP280;52893;52.870;5.822;2023-06-10T00:24:35;101663.53;;;18.51
66113;BMP280;52893;52.870;5.822;2023-06-10T00:27:02;101665.16;;;18.52
66113;BMP280;52893;52.870;5.822;2023-06-10T00:29:31;101662.41;;;18.52
66113;BMP280;52893;52.870;5.822;2023-06-10T00:31:59;101663.53;;;18.51
66113;BMP280;52893;52.870;5.822;2023-06-10T00:34:27;101663.09;;;18.49
66113;BMP280;52893;52.870;5.822;2023-06-10T00:36:54;101657.94;;;18.47
66113;BMP280;52893;52.870;5.822;2023-06-10T00:39:22;101658.28;;;18.46
66113;BMP280;52893;52.870;5.822;2023-06-10T00:41:49;101659.31;;;18.38
66113;BMP280;52893;52.870;5.822;2023-06-10T00:44:17;101659.31;;;18.38
66113;BMP280;52893;52.870;5.822;2023-06-10T00:46:45;101658.16;;;18.39
66113;BMP280;52893;52.870;5.822;2023-06-10T00:49:12;101660.44;;;18.37
66113;BMP280;52893;52.870;5.822;2023-06-10T00:51:40;101656.88;;;18.36
66113;BMP280;52893;52.870;5.822;2023-06-10T00:54:07;101659.25;;;18.34
66113;BMP280;52893;52.870;5.822;2023-06-10T00:56:35;101655.22;;;18.32
66113;BMP280;52893;52.870;5.822;2023-06-10T00:59:03;101654.63;;;18.23
66113;BMP280;52893;52.870;5.822;2023-06-10T01:01:30;101641.81;;;18.15
66113;BMP280;52893;52.870;5.822;2023-06-10T01:04:02;101670.06;;;18.24
66113;BMP280;52893;52.870;5.822;2023-06-10T01:06:36;101665.22;;;18.21
66113;BMP280;52893;52.870;5.822;2023-06-10T01:09:13;101668.34;;;18.19
66113;BMP280;52893;52.870;5.822;2023-06-10T01:11:47;101662.31;;;18.13
66113;BMP280;52893;52.870;5.822;2023-06-10T01:14:15;101664.63;;;18.11
66113;BMP280;52893;52.870;5.822;2023-06-10T01:16:44;101661.84;;;18.11
66113;BMP280;52893;52.870;5.822;2023-06-10T01:19:12;101662.56;;;18.08
66113;BMP280;52893;52.870;5.822;2023-06-10T01:21:43;101674.44;;;18.09
66113;BMP280;52893;52.870;5.822;2023-06-10T01:24:14;101676.31;;;18.05
66113;BMP280;52893;52.870;5.822;2023-06-10T01:26:45;101678.72;;;18.06
66113;BMP280;52893;52.870;5.822;2023-06-10T01:29:18;101667.22;;;18.04
66113;BMP280;52893;52.870;5.822;2023-06-10T01:31:49;101667.22;;;18.04
66113;BMP280;52893;52.870;5.822;2023-06-10T01:34:21;101670.44;;;18.06
66113;BMP280;52893;52.870;5.822;2023-06-10T01:36:51;101675.56;;;18.08
66113;BMP280;52893;52.870;5.822;2023-06-10T01:39:22;101672.81;;;18.08
66113;BMP280;52893;52.870;5.822;2023-06-10T01:41:51;101672.03;;;18.07
66113;BMP280;52893;52.870;5.822;2023-06-10T01:44:19;101668.28;;;18.00
66113;BMP280;52893;52.870;5.822;2023-06-10T01:46:46;101674.38;;;18.05
66113;BMP280;52893;52.870;5.822;2023-06-10T01:49:13;101674.38;;;18.05
66113;BMP280;52893;52.870;5.822;2023-06-10T01:51:43;101675.53;;;18.04
66113;BMP280;52893;52.870;5.822;2023-06-10T01:54:11;101669.19;;;18.04
66113;BMP280;52893;52.870;5.822;2023-06-10T01:56:39;101681.72;;;18.01
66113;BMP280;52893;52.870;5.822;2023-06-10T01:59:06;101674.19;;;17.98
66113;BMP280;52893;52.870;5.822;2023-06-10T02:01:33;101682.47;;;17.98
66113;BMP280;52893;52.870;5.822;2023-06-10T02:04:02;101674.91;;;17.95
66113;BMP280;52893;52.870;5.822;2023-06-10T02:06:31;101681.13;;;17.92
66113;BMP280;52893;52.870;5.822;2023-06-10T02:09:00;101686.94;;;17.87
66113;BMP280;52893;52.870;5.822;2023-06-10T02:11:30;101682.47;;;17.83
66113;BMP280;52893;52.870;5.822;2023-06-10T02:13:58;101686.84;;;17.84
66113;BMP280;52893;52.870;5.822;2023-06-10T02:16:25;101681.22;;;17.80
66113;BMP280;52893;52.870;5.822;2023-06-10T02:18:52;101672.75;;;17.73
66113;BMP280;52893;52.870;5.822;2023-06-10T02:21:20;101681.41;;;17.72
66113;BMP280;52893;52.870;5.822;2023-06-10T02:23:47;101684.53;;;17.70
66113;BMP280;52893;52.870;5.822;2023-06-10T02:26:14;101680.06;;;17.66
66113;BMP280;52893;52.870;5.822;2023-06-10T02:28:43;101682.84;;;17.66
66113;BMP280;52893;52.870;5.822;2023-06-10T02:31:12;101687.81;;;17.60
66113;BMP280;52893;52.870;5.822;2023-06-10T02:33:40;101686.91;;;17.56
66113;BMP280;52893;52.870;5.822;2023-06-10T02:36:09;101688.69;;;17.48
66113;BMP280;52893;52.870;5.822;2023-06-10T02:38:39;101678.84;;;17.35
66113;BMP280;52893;52.870;5.822;2023-06-10T02:41:07;101694.72;;;17.38
66113;BMP280;52893;52.870;5.822;2023-06-10T02:43:34;101692.31;;;17.37
66113;BMP280;52893;52.870;5.822;2023-06-10T02:46:03;101696.22;;;17.36
66113;BMP280;52893;52.870;5.822;2023-06-10T02:48:31;101703.38;;;17.37
66113;BMP280;52893;52.870;5.822;2023-06-10T02:50:59;101669.41;;;17.21
66113;BMP280;52893;52.870;5.822;2023-06-10T02:53:35;101686.81;;;17.37
66113;BMP280;52893;52.870;5.822;2023-06-10T02:56:08;101673.94;;;17.29
66113;BMP280;52893;52.870;5.822;2023-06-10T02:58:36;101693.94;;;17.38
66113;BMP280;52893;52.870;5.822;2023-06-10T03:01:05;101679.66;;;17.36
66113;BMP280;52893;52.870;5.822;2023-06-10T03:03:44;101685.44;;;17.31
66113;BMP280;52893;52.870;5.822;2023-06-10T03:06:14;101685.00;;;17.29
66113;BMP280;52893;52.870;5.822;2023-06-10T03:08:42;101687.31;;;17.27
66113;BMP280;52893;52.870;5.822;2023-06-10T03:11:14;101687.97;;;17.24
66113;BMP280;52893;52.870;5.822;2023-06-10T03:13:41;101687.91;;;17.20
66113;BMP280;52893;52.870;5.822;2023-06-10T03:16:14;101691.72;;;17.16
66113;BMP280;52893;52.870;5.822;2023-06-10T03:18:42;101691.28;;;17.14
66113;BMP280;52893;52.870;5.822;2023-06-10T03:21:10;101696.34;;;17.12
66113;BMP280;52893;52.870;5.822;2023-06-10T03:23:38;101688.41;;;17.10
66113;BMP280;52893;52.870;5.822;2023-06-10T03:26:06;101672.34;;;17.00
66113;BMP280;52893;52.870;5.822;2023-06-10T03:28:36;101683.50;;;17.03
66113;BMP280;52893;52.870;5.822;2023-06-10T03:31:04;101686.63;;;17.02
66113;BMP280;52893;52.870;5.822;2023-06-10T03:33:33;101681.66;;;16.95
66113;BMP280;52893;52.870;5.822;2023-06-10T03:36:02;101697.34;;;16.91
66113;BMP280;52893;52.870;5.822;2023-06-10T03:38:30;101693.22;;;16.85
66113;BMP280;52893;52.870;5.822;2023-06-10T03:40:58;101691.50;;;16.81
66113;BMP280;52893;52.870;5.822;2023-06-10T03:43:25;101701.50;;;16.73
66113;BMP280;52893;52.870;5.822;2023-06-10T03:45:53;101691.28;;;16.74
66113;BMP280;52893;52.870;5.822;2023-06-10T03:48:21;101703.13;;;16.74
66113;BMP280;52893;52.870;5.822;2023-06-10T03:50:52;101694.50;;;16.76
66113;BMP280;52893;52.870;5.822;2023-06-10T03:53:21;101702.78;;;16.76
66113;BMP280;52893;52.870;5.822;2023-06-10T03:55:48;101707.84;;;16.74
66113;BMP280;52893;52.870;5.822;2023-06-10T03:58:19;101707.72;;;16.70
66113;BMP280;52893;52.870;5.822;2023-06-10T04:00:46;101701.31;;;16.66
66113;BMP280;52893;52.870;5.822;2023-06-10T04:03:14;101697.28;;;16.64
66113;BMP280;52893;52.870;5.822;2023-06-10T04:05:52;101699.72;;;16.65
66113;BMP280;52893;52.870;5.822;2023-06-10T04:08:19;101709.81;;;16.61
66113;BMP280;52893;52.870;5.822;2023-06-10T04:10:48;101702.13;;;16.67
66113;BMP280;52893;52.870;5.822;2023-06-10T04:13:15;101710.00;;;16.68
66113;BMP280;52893;52.870;5.822;2023-06-10T04:15:52;101712.75;;;16.68
66113;BMP280;52893;52.870;5.822;2023-06-10T04:18:20;101706.47;;;16.68
66113;BMP280;52893;52.870;5.822;2023-06-10T04:20:49;101709.34;;;16.71
66113;BMP280;52893;52.870;5.822;2023-06-10T04:23:18;101711.63;;;16.69
66113;BMP280;52893;52.870;5.822;2023-06-10T04:25:46;101712.91;;;16.72
66113;BMP280;52893;52.870;5.822;2023-06-10T04:28:14;101720.81;;;16.73
66113;BMP280;52893;52.870;5.822;2023-06-10T04:30:42;101720.16;;;16.76
66113;BMP280;52893;52.870;5.822;2023-06-10T04:33:11;101724.94;;;16.79
66113;BMP280;52893;52.870;5.822;2023-06-10T04:35:40;101720.56;;;16.78
66113;BMP280;52893;52.870;5.822;2023-06-10T04:38:11;101733.19;;;16.79
66113;BMP280;52893;52.870;5.822;2023-06-10T04:40:40;101728.50;;;16.80
66113;BMP280;52893;52.870;5.822;2023-06-10T04:43:08;101728.59;;;16.83
66113;BMP280;52893;52.870;5.822;2023-06-10T04:45:36;101731.91;;;16.89
66113;BMP280;52893;52.870;5.822;2023-06-10T04:48:03;101726.97;;;16.94
66113;BMP280;52893;52.870;5.822;2023-06-10T04:50:31;101734.31;;;17.02
66113;BMP280;52893;52.870;5.822;2023-06-10T04:52:59;101738.97;;;17.14
66113;BMP280;52893;52.870;5.822;2023-06-10T04:55:26;101728.97;;;17.22
66113;BMP280;52893;52.870;5.822;2023-06-10T04:57:54;101725.88;;;17.39
66113;BMP280;52893;52.870;5.822;2023-06-10T05:00:22;101738.69;;;17.59
66113;BMP280;52893;52.870;5.822;2023-06-10T05:02:49;101733.50;;;17.73
66113;BMP280;52893;52.870;5.822;2023-06-10T05:05:18;101744.59;;;17.89
66113;BMP280;52893;52.870;5.822;2023-06-10T05:07:45;101745.66;;;18.00
66113;BMP280;52893;52.870;5.822;2023-06-10T05:10:12;101741.91;;;18.08
66113;BMP280;52893;52.870;5.822;2023-06-10T05:12:40;101745.66;;;18.16
66113;BMP280;52893;52.870;5.822;2023-06-10T05:15:09;101747.59;;;18.31
66113;BMP280;52893;52.870;5.822;2023-06-10T05:17:37;101736.00;;;18.41
66113;BMP280;52893;52.870;5.822;2023-06-10T05:20:05;101740.25;;;18.54
66113;BMP280;52893;52.870;5.822;2023-06-10T05:22:34;101738.94;;;18.67
66113;BMP280;52893;52.870;5.822;2023-06-10T05:25:01;101740.94;;;18.86
66113;BMP280;52893;52.870;5.822;2023-06-10T05:27:28;101733.34;;;18.98
66113;BMP280;52893;52.870;5.822;2023-06-10T05:29:55;101741.50;;;19.10
66113;BMP280;52893;52.870;5.822;2023-06-10T05:32:24;101740.47;;;19.18
66113;BMP280;52893;52.870;5.822;2023-06-10T05:34:51;101737.09;;;19.29
66113;BMP280;52893;52.870;5.822;2023-06-10T05:37:18;101740.00;;;19.36
66113;BMP280;52893;52.870;5.822;2023-06-10T05:39:46;101736.53;;;19.39
66113;BMP280;52893;52.870;5.822;2023-06-10T05:42:13;101745.44;;;19.51
66113;BMP280;52893;52.870;5.822;2023-06-10T05:44:40;101740.81;;;19.59
66113;BMP280;52893;52.870;5.822;2023-06-10T05:47:07;101741.69;;;19.63
66113;BMP280;52893;52.870;5.822;2023-06-10T05:49:36;101744.28;;;19.75
66113;BMP280;52893;52.870;5.822;2023-06-10T05:52:04;101723.59;;;19.69
66113;BMP280;52893;52.870;5.822;2023-06-10T05:54:31;101744.50;;;19.89
66113;BMP280;52893;52.870;5.822;2023-06-10T05:56:58;101742.28;;;19.98
66113;BMP280;52893;52.870;5.822;2023-06-10T05:59:26;101740.06;;;20.07
66113;BMP280;52893;52.870;5.822;2023-06-10T06:01:53;101744.97;;;20.17
66113;BMP280;52893;52.870;5.822;2023-06-10T06:04:20;101729.31;;;20.28
66113;BMP280;52893;52.870;5.822;2023-06-10T06:06:49;101742.16;;;20.40
66113;BMP280;52893;52.870;5.822;2023-06-10T06:09:16;101743.09;;;20.51
66113;BMP280;52893;52.870;5.822;2023-06-10T06:11:43;101739.19;;;20.56
66113;BMP280;52893;52.870;5.822;2023-06-10T06:14:10;101743.25;;;20.62
66113;BMP280;52893;52.870;5.822;2023-06-10T06:16:38;101746.94;;;20.73
66113;BMP280;52893;52.870;5.822;2023-06-10T06:19:05;101742.69;;;20.79
66113;BMP280;52893;52.870;5.822;2023-06-10T06:21:32;101745.09;;;20.84
66113;BMP280;52893;52.870;5.822;2023-06-10T06:24:01;101757.88;;;20.92
66113;BMP280;52893;52.870;5.822;2023-06-10T06:26:28;101743.03;;;21.07
66113;BMP280;52893;52.870;5.822;2023-06-10T06:28:55;101744.78;;;21.22
66113;BMP280;52893;52.870;5.822;2023-06-10T06:31:23;101744.78;;;21.22
66113;BMP280;52893;52.870;5.822;2023-06-10T06:33:50;101743.34;;;21.35
66113;BMP280;52893;52.870;5.822;2023-06-10T06:36:17;101743.41;;;21.42
66113;BMP280;52893;52.870;5.822;2023-06-10T06:38:44;101751.78;;;21.49
66113;BMP280;52893;52.870;5.822;2023-06-10T06:41:13;101743.91;;;21.52
66113;BMP280;52893;52.870;5.822;2023-06-10T06:43:40;101743.19;;;21.62
66113;BMP280;52893;52.870;5.822;2023-06-10T06:46:24;101752.41;;;21.76
66113;BMP280;52893;52.870;5.822;2023-06-10T06:48:52;101746.16;;;21.86
66113;BMP280;52893;52.870;5.822;2023-06-10T06:51:19;101746.22;;;21.93
66113;BMP280;52893;52.870;5.822;2023-06-10T06:53:46;101739.88;;;21.93
66113;BMP280;52893;52.870;5.822;2023-06-10T06:56:17;101743.91;;;21.99
66113;BMP280;52893;52.870;5.822;2023-06-10T06:58:44;101748.38;;;22.14
66113;BMP280;52893;52.870;5.822;2023-06-10T07:01:11;101743.19;;;22.16
66113;BMP280;52893;52.870;5.822;2023-06-10T07:03:38;101741.25;;;22.20
66113;BMP280;52893;52.870;5.822;2023-06-10T07:06:05;101744.09;;;22.34
66113;BMP280;52893;52.870;5.822;2023-06-10T07:08:33;101738.22;;;22.50
66113;BMP280;52893;52.870;5.822;2023-06-10T07:11:00;101743.88;;;22.64
66113;BMP280;52893;52.870;5.822;2023-06-10T07:13:28;101749.50;;;22.82
66113;BMP280;52893;52.870;5.822;2023-06-10T07:15:55;101746.75;;;22.99
66113;BMP280;52893;52.870;5.822;2023-06-10T07:18:23;101743.63;;;23.18
66113;BMP280;52893;52.870;5.822;2023-06-10T07:20:50;101746.03;;;23.34
66113;BMP280;52893;52.870;5.822;2023-06-10T07:23:18;101746.88;;;23.52
66113;BMP280;52893;52.870;5.822;2023-06-10T07:25:45;101746.88;;;23.70
66113;BMP280;52893;52.870;5.822;2023-06-10T07:28:12;101754.03;;;23.81
66113;BMP280;52893;52.870;5.822;2023-06-10T07:30:40;101759.19;;;23.93
66113;BMP280;52893;52.870;5.822;2023-06-10T07:33:07;101755.19;;;24.09
66113;BMP280;52893;52.870;5.822;2023-06-10T07:35:36;101747.97;;;24.11
66113;BMP280;52893;52.870;5.822;2023-06-10T07:38:03;101749.16;;;24.28
66113;BMP280;52893;52.870;5.822;2023-06-10T07:40:30;101752.25;;;24.51
66113;BMP280;52893;52.870;5.822;2023-06-10T07:42:58;101755.00;;;24.62
66113;BMP280;52893;52.870;5.822;2023-06-10T07:45:25;101760.09;;;24.81
66113;BMP280;52893;52.870;5.822;2023-06-10T07:47:54;101749.66;;;24.92
66113;BMP280;52893;52.870;5.822;2023-06-10T07:50:21;101753.22;;;24.99
66113;BMP280;52893;52.870;5.822;2023-06-10T07:52:48;101761.56;;;25.03
66113;BMP280;52893;52.870;5.822;2023-06-10T07:55:16;101762.75;;;25.05
66113;BMP280;52893;52.870;5.822;2023-06-10T07:57:43;101764.72;;;25.12
66113;BMP280;52893;52.870;5.822;2023-06-10T08:00:11;101760.22;;;25.21
66113;BMP280;52893;52.870;5.822;2023-06-10T08:02:41;101756.56;;;25.32
66113;BMP280;52893;52.870;5.822;2023-06-10T08:05:09;101753.41;;;25.30
66113;BMP280;52893;52.870;5.822;2023-06-10T08:07:37;101763.00;;;25.29
66113;BMP280;52893;52.870;5.822;2023-06-10T08:10:05;101765.41;;;25.27
66113;BMP280;52893;52.870;5.822;2023-06-10T08:12:33;101753.78;;;25.32
66113;BMP280;52893;52.870;5.822;2023-06-10T08:15:00;101756.56;;;25.32
66113;BMP280;52893;52.870;5.822;2023-06-10T08:17:28;101761.28;;;25.42
66113;BMP280;52893;52.870;5.822;2023-06-10T08:19:55;101756.47;;;25.46
66113;BMP280;52893;52.870;5.822;2023-06-10T08:22:24;101757.59;;;25.52
66113;BMP280;52893;52.870;5.822;2023-06-10T08:24:51;101761.09;;;25.63
66113;BMP280;52893;52.870;5.822;2023-06-10T08:27:18;101757.03;;;25.74
66113;BMP280;52893;52.870;5.822;2023-06-10T08:29:45;101759.28;;;25.86
66113;BMP280;52893;52.870;5.822;2023-06-10T08:32:12;101760.31;;;26.03
66113;BMP280;52893;52.870;5.822;2023-06-10T08:34:40;101766.19;;;26.12
66113;BMP280;52893;52.870;5.822;2023-06-10T08:37:07;101757.34;;;26.17
66113;BMP280;52893;52.870;5.822;2023-06-10T08:39:35;101757.72;;;26.19
66113;BMP280;52893;52.870;5.822;2023-06-10T08:42:10;101765.25;;;26.26
66113;BMP280;52893;52.870;5.822;2023-06-10T08:44:39;101764.28;;;26.39
66113;BMP280;52893;52.870;5.822;2023-06-10T08:47:13;101762.97;;;26.47
66113;BMP280;52893;52.870;5.822;2023-06-10T08:49:43;101762.84;;;26.58
66113;BMP280;52893;52.870;5.822;2023-06-10T08:52:14;101761.53;;;26.66
66113;BMP280;52893;52.870;5.822;2023-06-10T08:54:48;101760.63;;;26.73
66113;BMP280;52893;52.870;5.822;2023-06-10T08:57:17;101756.53;;;26.81
66113;BMP280;52893;52.870;5.822;2023-06-10T08:59:46;101761.97;;;26.91
66113;BMP280;52893;52.870;5.822;2023-06-10T09:02:14;101754.97;;;27.03
66113;BMP280;52893;52.870;5.822;2023-06-10T09:04:46;101763.19;;;27.17
66113;BMP280;52893;52.870;5.822;2023-06-10T09:07:14;101710.97;;;27.00
66113;BMP280;52893;52.870;5.822;2023-06-10T09:09:44;101733.56;;;27.16
66113;BMP280;52893;52.870;5.822;2023-06-10T09:12:13;101763.63;;;27.39
66113;BMP280;52893;52.870;5.822;2023-06-10T09:14:41;101749.91;;;27.44
66113;BMP280;52893;52.870;5.822;2023-06-10T09:17:09;101758.97;;;27.52
66113;BMP280;52893;52.870;5.822;2023-06-10T09:19:38;101751.19;;;27.63
66113;BMP280;52893;52.870;5.822;2023-06-10T09:22:05;101751.63;;;27.81
66113;BMP280;52893;52.870;5.822;2023-06-10T09:24:32;101755.59;;;28.03
66113;BMP280;52893;52.870;5.822;2023-06-10T09:27:05;101761.78;;;28.34
66113;BMP280;52893;52.870;5.822;2023-06-10T09:29:45;101762.19;;;28.52
66113;BMP280;52893;52.870;5.822;2023-06-10T09:32:13;101747.91;;;28.79
66113;BMP280;52893;52.870;5.822;2023-06-10T09:34:40;101750.13;;;29.03
66113;BMP280;52893;52.870;5.822;2023-06-10T09:37:08;101753.28;;;29.21
66113;BMP280;52893;52.870;5.822;2023-06-10T09:39:38;101744.03;;;29.37
66113;BMP280;52893;52.870;5.822;2023-06-10T09:42:15;101755.88;;;29.45
66113;BMP280;52893;52.870;5.822;2023-06-10T09:44:49;101753.38;;;29.63
66113;BMP280;52893;52.870;5.822;2023-06-10T09:47:20;101754.28;;;29.72
66113;BMP280;52893;52.870;5.822;2023-06-10T09:49:47;101756.88;;;29.95
66113;BMP280;52893;52.870;5.822;2023-06-10T09:52:14;101761.44;;;30.18
66113;BMP280;52893;52.870;5.822;2023-06-10T09:54:47;101758.63;;;30.43
66113;BMP280;52893;52.870;5.822;2023-06-10T09:57:16;101758.88;;;30.61
66113;BMP280;52893;52.870;5.822;2023-06-10T09:59:44;101759.53;;;30.78
66113;BMP280;52893;52.870;5.822;2023-06-10T10:02:15;101758.84;;;30.86
66113;BMP280;52893;52.870;5.822;2023-06-10T10:04:43;101745.16;;;31.10
66113;BMP280;52893;52.870;5.822;2023-06-10T10:07:11;101750.81;;;31.32
66113;BMP280;52893;52.870;5.822;2023-06-10T10:09:39;101752.19;;;31.40
66113;BMP280;52893;52.870;5.822;2023-06-10T10:12:10;101748.31;;;31.46
66113;BMP280;52893;52.870;5.822;2023-06-10T10:14:39;101745.75;;;31.61
66113;BMP280;52893;52.870;5.822;2023-06-10T10:17:10;101743.47;;;31.68
66113;BMP280;52893;52.870;5.822;2023-06-10T10:19:43;101750.22;;;31.71
66113;BMP280;52893;52.870;5.822;2023-06-10T10:22:15;101730.44;;;31.93
66113;BMP280;52893;52.870;5.822;2023-06-10T10:24:49;101746.03;;;32.37
66113;BMP280;52893;52.870;5.822;2023-06-10T10:27:18;101746.72;;;32.41
66113;BMP280;52893;52.870;5.822;2023-06-10T10:29:54;101742.16;;;32.52
66113;BMP280;52893;52.870;5.822;2023-06-10T10:32:25;101745.34;;;32.73
66113;BMP280;52893;52.870;5.822;2023-06-10T10:35:01;101742.09;;;32.92
66113;BMP280;52893;52.870;5.822;2023-06-10T10:37:31;101736.28;;;32.87
66113;BMP280;52893;52.870;5.822;2023-06-10T10:40:00;101740.03;;;32.84
66113;BMP280;52893;52.870;5.822;2023-06-10T10:42:28;101739.13;;;33.05
66113;BMP280;52893;52.870;5.822;2023-06-10T10:44:57;101734.72;;;32.95
66113;BMP280;52893;52.870;5.822;2023-06-10T10:47:27;101735.69;;;33.19
66113;BMP280;52893;52.870;5.822;2023-06-10T10:49:55;101726.22;;;33.40
66113;BMP280;52893;52.870;5.822;2023-06-10T10:52:25;101731.41;;;33.51
66113;BMP280;52893;52.870;5.822;2023-06-10T10:54:53;101724.13;;;33.68
66113;BMP280;52893;52.870;5.822;2023-06-10T10:57:21;101732.13;;;33.87
66113;BMP280;52893;52.870;5.822;2023-06-10T10:59:54;101723.47;;;33.82
66113;BMP280;52893;52.870;5.822;2023-06-10T11:02:35;101721.72;;;33.75
66113;BMP280;52893;52.870;5.822;2023-06-10T11:05:05;101723.56;;;33.96
66113;BMP280;52893;52.870;5.822;2023-06-10T11:07:34;101718.66;;;34.06
66113;BMP280;52893;52.870;5.822;2023-06-10T11:10:05;101718.94;;;34.17
66113;BMP280;52893;52.870;5.822;2023-06-10T11:12:49;101713.69;;;34.24
66113;BMP280;52893;52.870;5.822;2023-06-10T11:15:18;101708.75;;;34.01
66113;BMP280;52893;52.870;5.822;2023-06-10T11:18:10;101704.63;;;34.11
66113;BMP280;52893;52.870;5.822;2023-06-10T11:20:54;101714.69;;;34.12
66113;BMP280;52893;52.870;5.822;2023-06-10T11:23:35;101703.06;;;34.34
66113;BMP280;52893;52.870;5.822;2023-06-10T11:26:29;101694.66;;;34.49
66113;BMP280;52893;52.870;5.822;2023-06-10T11:29:07;101699.34;;;34.52
66113;BMP280;52893;52.870;5.822;2023-06-10T11:31:40;101707.13;;;34.66
66113;BMP280;52893;52.870;5.822;2023-06-10T11:34:09;101666.09;;;34.28
66113;BMP280;52893;52.870;5.822;2023-06-10T11:36:38;101708.22;;;34.45
66113;BMP280;52893;52.870;5.822;2023-06-10T11:39:08;101700.81;;;34.47
66113;BMP280;52893;52.870;5.822;2023-06-10T11:41:37;101698.69;;;34.57
66113;BMP280;52893;52.870;5.822;2023-06-10T11:44:09;101702.31;;;34.95
66113;BMP280;52893;52.870;5.822;2023-06-10T11:46:37;101698.25;;;35.11
66113;BMP280;52893;52.870;5.822;2023-06-10T11:49:05;101701.28;;;35.22
66113;BMP280;52893;52.870;5.822;2023-06-10T11:51:35;101695.81;;;35.33
66113;BMP280;52893;52.870;5.822;2023-06-10T11:54:03;101694.63;;;35.54
66113;BMP280;52893;52.870;5.822;2023-06-10T11:56:31;101694.50;;;35.63
66113;BMP280;52893;52.870;5.822;2023-06-10T11:59:00;101691.38;;;35.76
66113;BMP280;52893;52.870;5.822;2023-06-10T12:01:31;101694.50;;;35.78
66113;BMP280;52893;52.870;5.822;2023-06-10T12:04:02;101687.75;;;35.75
66113;BMP280;52893;52.870;5.822;2023-06-10T12:06:41;101678.22;;;35.78
66113;BMP280;52893;52.870;5.822;2023-06-10T12:09:20;101678.00;;;35.96
66113;BMP280;52893;52.870;5.822;2023-06-10T12:11:49;101675.56;;;36.09
66113;BMP280;52893;52.870;5.822;2023-06-10T12:14:50;101674.91;;;36.00
66113;BMP280;52893;52.870;5.822;2023-06-10T12:17:20;101670.97;;;35.77
66113;BMP280;52893;52.870;5.822;2023-06-10T12:19:48;101670.19;;;35.62
66113;BMP280;52893;52.870;5.822;2023-06-10T12:22:17;101678.94;;;35.44
66113;BMP280;52893;52.870;5.822;2023-06-10T12:24:45;101677.25;;;35.52
66113;BMP280;52893;52.870;5.822;2023-06-10T12:27:12;101672.25;;;35.62
66113;BMP280;52893;52.870;5.822;2023-06-10T12:29:50;101675.28;;;35.87
66113;BMP280;52893;52.870;5.822;2023-06-10T12:32:19;101662.22;;;35.81
66113;BMP280;52893;52.870;5.822;2023-06-10T12:34:48;101668.94;;;35.78
66113;BMP280;52893;52.870;5.822;2023-06-10T12:37:17;101660.88;;;35.76
66113;BMP280;52893;52.870;5.822;2023-06-10T12:39:51;101667.81;;;35.90
66113;BMP280;52893;52.870;5.822;2023-06-10T12:42:21;101657.81;;;36.14
66113;BMP280;52893;52.870;5.822;2023-06-10T12:44:53;101662.16;;;36.30
66113;BMP280;52893;52.870;5.822;2023-06-10T12:47:29;101666.78;;;36.48
66113;BMP280;52893;52.870;5.822;2023-06-10T12:49:57;101646.16;;;36.33
66113;BMP280;52893;52.870;5.822;2023-06-10T12:52:26;101659.16;;;36.59
66113;BMP280;52893;52.870;5.822;2023-06-10T12:54:53;101647.16;;;36.75
66113;BMP280;52893;52.870;5.822;2023-06-10T12:57:21;101645.94;;;36.82
66113;BMP280;52893;52.870;5.822;2023-06-10T12:59:48;101648.84;;;36.62
66113;BMP280;52893;52.870;5.822;2023-06-10T13:02:18;101651.72;;;36.42
66113;BMP280;52893;52.870;5.822;2023-06-10T13:04:46;101644.56;;;36.52
66113;BMP280;52893;52.870;5.822;2023-06-10T13:07:14;101647.88;;;36.45
66113;BMP280;52893;52.870;5.822;2023-06-10T13:09:43;101638.31;;;36.48
66113;BMP280;52893;52.870;5.822;2023-06-10T13:12:10;101628.09;;;36.36
66113;BMP280;52893;52.870;5.822;2023-06-10T13:14:38;101637.13;;;36.14
66113;BMP280;52893;52.870;5.822;2023-06-10T13:17:05;101644.88;;;36.13
66113;BMP280;52893;52.870;5.822;2023-06-10T13:19:32;101644.38;;;36.35
66113;BMP280;52893;52.870;5.822;2023-06-10T13:22:00;101638.91;;;36.32
66113;BMP280;52893;52.870;5.822;2023-06-10T13:24:27;101636.00;;;36.26
66113;BMP280;52893;52.870;5.822;2023-06-10T13:26:55;101630.50;;;36.43
66113;BMP280;52893;52.870;5.822;2023-06-10T13:29:23;101640.16;;;36.71
66113;BMP280;52893;52.870;5.822;2023-06-10T13:31:50;101633.28;;;36.83
66113;BMP280;52893;52.870;5.822;2023-06-10T13:34:17;101634.78;;;36.78
66113;BMP280;52893;52.870;5.822;2023-06-10T13:36:44;101634.69;;;36.93
66113;BMP280;52893;52.870;5.822;2023-06-10T13:39:12;101632.16;;;37.00
66113;BMP280;52893;52.870;5.822;2023-06-10T13:41:40;101626.97;;;36.73
66113;BMP280;52893;52.870;5.822;2023-06-10T13:44:09;101631.50;;;36.60
66113;BMP280;52893;52.870;5.822;2023-06-10T13:46:36;101627.22;;;36.50
66113;BMP280;52893;52.870;5.822;2023-06-10T13:49:03;101600.44;;;36.36
66113;BMP280;52893;52.870;5.822;2023-06-10T13:51:30;101633.53;;;36.59
66113;BMP280;52893;52.870;5.822;2023-06-10T13:53:58;101628.66;;;36.65
66113;BMP280;52893;52.870;5.822;2023-06-10T13:56:25;101622.63;;;36.78
66113;BMP280;52893;52.870;5.822;2023-06-10T13:58:52;101627.75;;;36.74
66113;BMP280;52893;52.870;5.822;2023-06-10T14:01:21;101628.03;;;36.76
66113;BMP280;52893;52.870;5.822;2023-06-10T14:03:48;101623.00;;;36.91
66113;BMP280;52893;52.870;5.822;2023-06-10T14:06:15;101624.13;;;36.99
66113;BMP280;52893;52.870;5.822;2023-06-10T14:08:44;101611.22;;;37.03